sensor_id;sensor_type;location;lat;lon;timestamp;temperature;humidity
37998;DHT22;24079;51.824;4.682;2022-10-16T00:01:13;14.50;99.90
37998;DHT22;24079;51.824;4.682;2022-10-16T00:03:40;14.50;99.90
37998;DHT22;24079;51.824;4.682;2022-10-16T00:06:06;14.50;99.90
37998;DHT22;24079;51.824;4.682;2022-10-16T00:08:33;14.60;99.90
37998;DHT22;24079;51.824;4.682;2022-10-16T00:11:07;14.60;99.90
37998;DHT22;24079;51.824;4.682;2022-10-16T00:13:35;14.60;99.90
37998;DHT22;24079;51.824;4.682;2022-10-16T00:16:01;14.60;99.90
37998;DHT22;24079;51.824;4.682;2022-10-16T00:18:28;14.50;99.90
37998;DHT22;24079;51.824;4.682;2022-10-16T00:20:55;14.50;99.90
37998;DHT22;24079;51.824;4.682;2022-10-16T00:23:21;14.60;99.90
37998;DHT22;24079;51.824;4.682;2022-10-16T00:26:03;14.60;99.90
37998;DHT22;24079;51.824;4.682;2022-10-16T00:28:29;14.70;99.90
37998;DHT22;24079;51.824;4.682;2022-10-16T00:30:55;14.70;99.90
37998;DHT22;24079;51.824;4.682;2022-10-16T00:33:21;14.70;99.90
37998;DHT22;24079;51.824;4.682;2022-10-16T00:35:46;14.70;99.90
37998;DHT22;24079;51.824;4.682;2022-10-16T00:38:12;14.80;99.90
37998;DHT22;24079;51.824;4.682;2022-10-16T00:40:38;14.80;99.90
37998;DHT22;24079;51.824;4.682;2022-10-16T00:43:13;14.80;99.90
37998;DHT22;24079;51.824;4.682;2022-10-16T00:45:39;14.80;99.90
37998;DHT22;24079;51.824;4.682;2022-10-16T00:48:11;14.80;99.90
37998;DHT22;24079;51.824;4.682;2022-10-16T00:50:38;14.80;99.90
37998;DHT22;24079;51.824;4.682;2022-10-16T00:53:06;14.80;99.90
37998;DHT22;24079;51.824;4.682;2022-10-16T00:55:32;14.90;99.90
37998;DHT22;24079;51.824;4.682;2022-10-16T00:57:58;14.80;99.90
37998;DHT22;24079;51.824;4.682;2022-10-16T01:00:25;14.80;99.90
37998;DHT22;24079;51.824;4.682;2022-10-16T01:02:53;14.90;99.90
37998;DHT22;24079;51.824;4.682;2022-10-16T01:05:24;14.80;99.90
37998;DHT22;24079;51.824;4.682;2022-10-16T01:08:18;14.80;99.90
37998;DHT22;24079;51.824;4.682;2022-10-16T01:10:59;14.70;99.90
37998;DHT22;24079;51.824;4.682;2022-10-16T01:13:38;14.60;99.90
37998;DHT22;24079;51.824;4.682;2022-10-16T01:16:21;14.60;99.90
37998;DHT22;24079;51.824;4.682;2022-10-16T01:18:57;14.60;99.90
37998;DHT22;24079;51.824;4.682;2022-10-16T01:21:38;14.50;99.90
37998;DHT22;24079;51.824;4.682;2022-10-16T01:27:10;14.40;99.90
37998;DHT22;24079;51.824;4.682;2022-10-16T01:29:39;14.40;99.90
37998;DHT22;24079;51.824;4.682;2022-10-16T01:38:12;14.40;99.90
37998;DHT22;24079;51.824;4.682;2022-10-16T01:40:45;14.30;99.90
37998;DHT22;24079;51.824;4.682;2022-10-16T01:43:19;14.30;99.90
37998;DHT22;24079;51.824;4.682;2022-10-16T01:45:46;14.30;99.90
37998;DHT22;24079;51.824;4.682;2022-10-16T01:48:15;14.30;99.90
37998;DHT22;24079;51.824;4.682;2022-10-16T01:50:44;14.20;99.90
37998;DHT22;24079;51.824;4.682;2022-10-16T01:53:12;14.20;99.90
37998;DHT22;24079;51.824;4.682;2022-10-16T01:55:40;14.20;99.90
37998;DHT22;24079;51.824;4.682;2022-10-16T01:58:11;14.10;99.90
37998;DHT22;24079;51.824;4.682;2022-10-16T02:00:40;14.10;99.90
37998;DHT22;24079;51.824;4.682;2022-10-16T02:03:07;14.10;99.90
37998;DHT22;24079;51.824;4.682;2022-10-16T02:05:36;14.10;99.90
37998;DHT22;24079;51.824;4.682;2022-10-16T02:08:04;14.10;99.90
37998;DHT22;24079;51.824;4.682;2022-10-16T02:10:29;14.00;99.90
37998;DHT22;24079;51.824;4.682;2022-10-16T02:13:11;14.00;99.90
37998;DHT22;24079;51.824;4.682;2022-10-16T02:15:38;14.10;99.90
37998;DHT22;24079;51.824;4.682;2022-10-16T02:18:05;14.10;99.90
37998;DHT22;24079;51.824;4.682;2022-10-16T02:20:37;14.10;99.90
37998;DHT22;24079;51.824;4.682;2022-10-16T02:23:04;14.10;99.90
37998;DHT22;24079;51.824;4.682;2022-10-16T02:25:35;14.10;99.90
37998;DHT22;24079;51.824;4.682;2022-10-16T02:28:07;14.00;99.90
37998;DHT22;24079;51.824;4.682;2022-10-16T02:30:44;14.10;99.90
37998;DHT22;24079;51.824;4.682;2022-10-16T02:33:12;14.10;99.90
37998;DHT22;24079;51.824;4.682;2022-10-16T02:35:43;14.10;99.90
37998;DHT22;24079;51.824;4.682;2022-10-16T02:38:11;14.10;99.90
37998;DHT22;24079;51.824;4.682;2022-10-16T02:40:38;14.00;99.90
37998;DHT22;24079;51.824;4.682;2022-10-16T02:43:05;14.10;99.90
37998;DHT22;24079;51.824;4.682;2022-10-16T02:45:31;14.00;99.90
37998;DHT22;24079;51.824;4.682;2022-10-16T02:47:57;14.10;99.90
37998;DHT22;24079;51.824;4.682;2022-10-16T02:50:22;14.00;99.90
37998;DHT22;24079;51.824;4.682;2022-10-16T02:52:49;14.10;99.90
37998;DHT22;24079;51.824;4.682;2022-10-16T02:55:15;14.00;99.90
37998;DHT22;24079;51.824;4.682;2022-10-16T02:57:40;14.00;99.90
37998;DHT22;24079;51.824;4.682;2022-10-16T03:00:08;14.00;99.90
37998;DHT22;24079;51.824;4.682;2022-10-16T03:02:34;14.10;99.90
37998;DHT22;24079;51.824;4.682;2022-10-16T03:05:00;14.00;99.90
37998;DHT22;24079;51.824;4.682;2022-10-16T03:07:26;14.00;99.90
37998;DHT22;24079;51.824;4.682;2022-10-16T03:09:51;14.00;99.90
37998;DHT22;24079;51.824;4.682;2022-10-16T03:12:17;14.00;99.90
37998;DHT22;24079;51.824;4.682;2022-10-16T03:14:43;13.90;99.90
37998;DHT22;24079;51.824;4.682;2022-10-16T03:17:08;13.90;99.90
37998;DHT22;24079;51.824;4.682;2022-10-16T03:19:34;13.90;99.90
37998;DHT22;24079;51.824;4.682;2022-10-16T03:22:01;14.00;99.90
37998;DHT22;24079;51.824;4.682;2022-10-16T03:24:26;14.00;99.90
37998;DHT22;24079;51.824;4.682;2022-10-16T03:26:52;14.00;99.90
37998;DHT22;24079;51.824;4.682;2022-10-16T03:29:18;13.90;99.90
37998;DHT22;24079;51.824;4.682;2022-10-16T03:31:43;14.00;99.90
37998;DHT22;24079;51.824;4.682;2022-10-16T03:34:09;14.00;99.90
37998;DHT22;24079;51.824;4.682;2022-10-16T03:36:34;14.00;99.90
37998;DHT22;24079;51.824;4.682;2022-10-16T03:39:00;14.00;99.90
37998;DHT22;24079;51.824;4.682;2022-10-16T03:41:25;14.10;99.90
37998;DHT22;24079;51.824;4.682;2022-10-16T03:43:51;14.00;99.90
37998;DHT22;24079;51.824;4.682;2022-10-16T03:46:17;14.00;99.90
37998;DHT22;24079;51.824;4.682;2022-10-16T03:48:42;14.00;99.90
37998;DHT22;24079;51.824;4.682;2022-10-16T03:51:08;13.90;99.90
37998;DHT22;24079;51.824;4.682;2022-10-16T03:53:33;14.00;99.90
37998;DHT22;24079;51.824;4.682;2022-10-16T03:55:59;14.00;99.90
37998;DHT22;24079;51.824;4.682;2022-10-16T03:58:25;14.00;99.90
37998;DHT22;24079;51.824;4.682;2022-10-16T04:00:51;13.90;99.90
37998;DHT22;24079;51.824;4.682;2022-10-16T04:03:16;14.00;99.90
37998;DHT22;24079;51.824;4.682;2022-10-16T04:05:44;14.00;99.90
37998;DHT22;24079;51.824;4.682;2022-10-16T04:08:09;14.00;99.90
37998;DHT22;24079;51.824;4.682;2022-10-16T04:10:35;14.00;99.90
37998;DHT22;24079;51.824;4.682;2022-10-16T04:13:00;14.00;99.90
37998;DHT22;24079;51.824;4.682;2022-10-16T04:15:26;14.00;99.90
37998;DHT22;24079;51.824;4.682;2022-10-16T04:17:53;14.00;99.90
37998;DHT22;24079;51.824;4.682;2022-10-16T04:20:18;14.00;99.90
37998;DHT22;24079;51.824;4.682;2022-10-16T04:22:44;13.90;99.90
37998;DHT22;24079;51.824;4.682;2022-10-16T04:25:10;13.90;99.90
37998;DHT22;24079;51.824;4.682;2022-10-16T04:27:37;13.90;99.90
37998;DHT22;24079;51.824;4.682;2022-10-16T04:30:03;13.90;99.90
37998;DHT22;24079;51.824;4.682;2022-10-16T04:32:29;13.80;99.90
37998;DHT22;24079;51.824;4.682;2022-10-16T04:34:55;13.90;99.90
37998;DHT22;24079;51.824;4.682;2022-10-16T04:37:24;13.90;99.90
37998;DHT22;24079;51.824;4.682;2022-10-16T04:39:51;13.80;99.90
37998;DHT22;24079;51.824;4.682;2022-10-16T04:42:16;13.80;99.90
37998;DHT22;24079;51.824;4.682;2022-10-16T04:44:42;13.70;99.90
37998;DHT22;24079;51.824;4.682;2022-10-16T04:47:08;13.80;99.90
37998;DHT22;24079;51.824;4.682;2022-10-16T04:49:33;13.80;99.90
37998;DHT22;24079;51.824;4.682;2022-10-16T04:51:59;13.70;99.90
37998;DHT22;24079;51.824;4.682;2022-10-16T04:54:24;13.70;99.90
37998;DHT22;24079;51.824;4.682;2022-10-16T04:56:50;13.60;99.90
37998;DHT22;24079;51.824;4.682;2022-10-16T04:59:18;13.70;99.90
37998;DHT22;24079;51.824;4.682;2022-10-16T05:01:44;13.60;99.90
37998;DHT22;24079;51.824;4.682;2022-10-16T05:04:11;13.70;99.90
37998;DHT22;24079;51.824;4.682;2022-10-16T05:06:37;13.60;99.90
37998;DHT22;24079;51.824;4.682;2022-10-16T05:09:04;13.60;99.90
37998;DHT22;24079;51.824;4.682;2022-10-16T05:11:30;13.60;99.90
37998;DHT22;24079;51.824;4.682;2022-10-16T05:13:56;13.70;99.90
37998;DHT22;24079;51.824;4.682;2022-10-16T05:16:21;13.60;99.90
37998;DHT22;24079;51.824;4.682;2022-10-16T05:18:47;13.80;99.90
37998;DHT22;24079;51.824;4.682;2022-10-16T05:21:12;13.80;99.90
37998;DHT22;24079;51.824;4.682;2022-10-16T05:23:38;13.90;99.90
37998;DHT22;24079;51.824;4.682;2022-10-16T05:26:04;13.90;99.90
37998;DHT22;24079;51.824;4.682;2022-10-16T05:28:30;14.00;99.90
37998;DHT22;24079;51.824;4.682;2022-10-16T05:30:56;14.00;99.90
37998;DHT22;24079;51.824;4.682;2022-10-16T05:33:24;14.00;99.90
37998;DHT22;24079;51.824;4.682;2022-10-16T05:35:50;14.00;99.90
37998;DHT22;24079;51.824;4.682;2022-10-16T05:38:17;14.00;99.90
37998;DHT22;24079;51.824;4.682;2022-10-16T05:40:43;14.00;99.90
37998;DHT22;24079;51.824;4.682;2022-10-16T05:43:15;14.00;99.90
37998;DHT22;24079;51.824;4.682;2022-10-16T05:45:40;14.00;99.90
37998;DHT22;24079;51.824;4.682;2022-10-16T05:48:06;14.00;99.90
37998;DHT22;24079;51.824;4.682;2022-10-16T05:50:32;14.00;99.90
37998;DHT22;24079;51.824;4.682;2022-10-16T05:52:57;14.00;99.90
37998;DHT22;24079;51.824;4.682;2022-10-16T05:55:23;13.90;99.90
37998;DHT22;24079;51.824;4.682;2022-10-16T05:57:48;13.90;99.90
37998;DHT22;24079;51.824;4.682;2022-10-16T06:00:14;13.90;99.90
37998;DHT22;24079;51.824;4.682;2022-10-16T06:02:39;13.90;99.90
37998;DHT22;24079;51.824;4.682;2022-10-16T06:05:05;14.00;99.90
37998;DHT22;24079;51.824;4.682;2022-10-16T06:07:34;14.00;99.90
37998;DHT22;24079;51.824;4.682;2022-10-16T06:10:00;14.00;99.90
37998;DHT22;24079;51.824;4.682;2022-10-16T06:12:26;14.00;99.90
37998;DHT22;24079;51.824;4.682;2022-10-16T06:14:52;14.00;99.90
37998;DHT22;24079;51.824;4.682;2022-10-16T06:17:18;14.00;99.90
37998;DHT22;24079;51.824;4.682;2022-10-16T06:19:43;13.90;99.90
37998;DHT22;24079;51.824;4.682;2022-10-16T06:22:09;13.90;99.90
37998;DHT22;24079;51.824;4.682;2022-10-16T06:24:35;13.90;99.90
37998;DHT22;24079;51.824;4.682;2022-10-16T06:27:00;14.00;99.90
37998;DHT22;24079;51.824;4.682;2022-10-16T06:29:26;14.00;99.90
37998;DHT22;24079;51.824;4.682;2022-10-16T06:31:51;14.00;99.90
37998;DHT22;24079;51.824;4.682;2022-10-16T06:34:18;14.00;99.90
37998;DHT22;24079;51.824;4.682;2022-10-16T06:36:43;14.10;99.90
37998;DHT22;24079;51.824;4.682;2022-10-16T06:39:09;14.00;99.90
37998;DHT22;24079;51.824;4.682;2022-10-16T06:41:35;14.00;99.90
37998;DHT22;24079;51.824;4.682;2022-10-16T06:44:00;14.00;99.90
37998;DHT22;24079;51.824;4.682;2022-10-16T06:46:26;14.00;99.90
37998;DHT22;24079;51.824;4.682;2022-10-16T06:48:52;14.00;99.90
37998;DHT22;24079;51.824;4.682;2022-10-16T06:51:20;14.00;99.90
37998;DHT22;24079;51.824;4.682;2022-10-16T06:53:48;14.00;99.90
37998;DHT22;24079;51.824;4.682;2022-10-16T06:56:23;14.00;99.90
37998;DHT22;24079;51.824;4.682;2022-10-16T06:58:49;14.00;99.90
37998;DHT22;24079;51.824;4.682;2022-10-16T07:01:17;14.00;99.90
37998;DHT22;24079;51.824;4.682;2022-10-16T07:03:44;14.00;99.90
37998;DHT22;24079;51.824;4.682;2022-10-16T07:06:12;13.90;99.90
37998;DHT22;24079;51.824;4.682;2022-10-16T07:08:39;14.00;99.90
37998;DHT22;24079;51.824;4.682;2022-10-16T07:11:08;13.90;99.90
37998;DHT22;24079;51.824;4.682;2022-10-16T07:13:38;13.90;99.90
37998;DHT22;24079;51.824;4.682;2022-10-16T07:16:05;13.90;99.90
37998;DHT22;24079;51.824;4.682;2022-10-16T07:18:31;13.90;99.90
37998;DHT22;24079;51.824;4.682;2022-10-16T07:21:07;13.90;99.90
37998;DHT22;24079;51.824;4.682;2022-10-16T07:23:33;13.90;99.90
37998;DHT22;24079;51.824;4.682;2022-10-16T07:25:59;13.90;99.90
37998;DHT22;24079;51.824;4.682;2022-10-16T07:28:25;14.00;99.90
37998;DHT22;24079;51.824;4.682;2022-10-16T07:30:51;14.00;99.90
37998;DHT22;24079;51.824;4.682;2022-10-16T07:33:16;14.00;99.90
37998;DHT22;24079;51.824;4.682;2022-10-16T07:35:55;14.10;99.90
37998;DHT22;24079;51.824;4.682;2022-10-16T07:38:21;14.10;99.90
37998;DHT22;24079;51.824;4.682;2022-10-16T07:40:47;14.20;99.90
37998;DHT22;24079;51.824;4.682;2022-10-16T07:43:13;14.20;99.90
37998;DHT22;24079;51.824;4.682;2022-10-16T07:45:47;14.20;99.90
37998;DHT22;24079;51.824;4.682;2022-10-16T07:48:13;14.30;99.90
37998;DHT22;24079;51.824;4.682;2022-10-16T07:50:39;14.40;99.90
37998;DHT22;24079;51.824;4.682;2022-10-16T07:53:05;14.50;99.90
37998;DHT22;24079;51.824;4.682;2022-10-16T07:55:30;14.60;99.90
37998;DHT22;24079;51.824;4.682;2022-10-16T07:57:56;14.70;99.90
37998;DHT22;24079;51.824;4.682;2022-10-16T08:00:21;14.80;99.90
37998;DHT22;24079;51.824;4.682;2022-10-16T08:02:47;14.80;99.90
37998;DHT22;24079;51.824;4.682;2022-10-16T08:05:12;14.90;99.90
37998;DHT22;24079;51.824;4.682;2022-10-16T08:07:38;15.00;99.90
37998;DHT22;24079;51.824;4.682;2022-10-16T08:10:04;15.10;99.90
37998;DHT22;24079;51.824;4.682;2022-10-16T08:12:30;15.20;99.90
37998;DHT22;24079;51.824;4.682;2022-10-16T08:14:55;15.30;99.90
37998;DHT22;24079;51.824;4.682;2022-10-16T08:17:21;15.40;99.90
37998;DHT22;24079;51.824;4.682;2022-10-16T08:19:47;15.40;99.90
37998;DHT22;24079;51.824;4.682;2022-10-16T08:22:13;15.50;99.90
37998;DHT22;24079;51.824;4.682;2022-10-16T08:24:39;15.60;99.90
37998;DHT22;24079;51.824;4.682;2022-10-16T08:27:05;15.60;99.90
37998;DHT22;24079;51.824;4.682;2022-10-16T08:29:31;15.70;99.90
37998;DHT22;24079;51.824;4.682;2022-10-16T08:31:56;15.70;99.90
37998;DHT22;24079;51.824;4.682;2022-10-16T08:34:22;15.80;99.90
37998;DHT22;24079;51.824;4.682;2022-10-16T08:36:47;15.80;99.90
37998;DHT22;24079;51.824;4.682;2022-10-16T08:39:13;16.00;99.90
37998;DHT22;24079;51.824;4.682;2022-10-16T08:42:04;16.10;99.90
37998;DHT22;24079;51.824;4.682;2022-10-16T08:47:23;16.10;99.90
37998;DHT22;24079;51.824;4.682;2022-10-16T08:50:10;16.20;99.90
37998;DHT22;24079;51.824;4.682;2022-10-16T08:52:40;16.30;99.90
37998;DHT22;24079;51.824;4.682;2022-10-16T08:55:06;16.50;99.90
37998;DHT22;24079;51.824;4.682;2022-10-16T08:57:37;16.50;99.90
37998;DHT22;24079;51.824;4.682;2022-10-16T09:00:13;16.60;99.90
37998;DHT22;24079;51.824;4.682;2022-10-16T09:13:36;16.80;99.90
37998;DHT22;24079;51.824;4.682;2022-10-16T09:16:19;16.90;99.90
37998;DHT22;24079;51.824;4.682;2022-10-16T09:19:09;16.90;99.90
37998;DHT22;24079;51.824;4.682;2022-10-16T09:21:41;16.90;99.90
37998;DHT22;24079;51.824;4.682;2022-10-16T09:26:42;17.00;99.90
37998;DHT22;24079;51.824;4.682;2022-10-16T09:29:16;17.20;99.90
37998;DHT22;24079;51.824;4.682;2022-10-16T09:31:42;17.20;99.90
37998;DHT22;24079;51.824;4.682;2022-10-16T09:34:24;17.30;99.90
37998;DHT22;24079;51.824;4.682;2022-10-16T09:36:51;17.40;99.90
37998;DHT22;24079;51.824;4.682;2022-10-16T09:39:17;17.40;99.90
37998;DHT22;24079;51.824;4.682;2022-10-16T09:41:44;17.40;99.90
37998;DHT22;24079;51.824;4.682;2022-10-16T09:44:24;17.40;99.90
37998;DHT22;24079;51.824;4.682;2022-10-16T09:47:04;17.50;99.90
37998;DHT22;24079;51.824;4.682;2022-10-16T09:49:29;17.40;99.90
37998;DHT22;24079;51.824;4.682;2022-10-16T09:52:06;17.60;99.90
37998;DHT22;24079;51.824;4.682;2022-10-16T09:54:36;17.60;99.90
37998;DHT22;24079;51.824;4.682;2022-10-16T09:57:06;17.50;99.90
37998;DHT22;24079;51.824;4.682;2022-10-16T09:59:33;17.60;99.90
37998;DHT22;24079;51.824;4.682;2022-10-16T10:02:04;17.60;99.90
37998;DHT22;24079;51.824;4.682;2022-10-16T10:04:42;17.70;99.90
37998;DHT22;24079;51.824;4.682;2022-10-16T10:07:18;17.60;99.90
37998;DHT22;24079;51.824;4.682;2022-10-16T10:09:46;17.60;99.90
37998;DHT22;24079;51.824;4.682;2022-10-16T10:12:31;17.60;99.90
37998;DHT22;24079;51.824;4.682;2022-10-16T10:15:10;17.70;99.90
37998;DHT22;24079;51.824;4.682;2022-10-16T10:17:46;17.70;99.90
37998;DHT22;24079;51.824;4.682;2022-10-16T10:20:30;17.70;99.90
37998;DHT22;24079;51.824;4.682;2022-10-16T10:22:58;17.80;99.90
37998;DHT22;24079;51.824;4.682;2022-10-16T10:28:18;18.00;99.90
37998;DHT22;24079;51.824;4.682;2022-10-16T10:30:49;18.00;99.90
37998;DHT22;24079;51.824;4.682;2022-10-16T10:56:05;18.20;99.90
37998;DHT22;24079;51.824;4.682;2022-10-16T11:01:19;18.50;99.90
37998;DHT22;24079;51.824;4.682;2022-10-16T11:04:04;18.50;99.90
37998;DHT22;24079;51.824;4.682;2022-10-16T11:06:40;18.50;99.90
37998;DHT22;24079;51.824;4.682;2022-10-16T11:09:19;18.50;99.90
37998;DHT22;24079;51.824;4.682;2022-10-16T11:11:52;18.60;99.90
37998;DHT22;24079;51.824;4.682;2022-10-16T11:14:34;18.70;99.90
37998;DHT22;24079;51.824;4.682;2022-10-16T11:17:08;18.70;99.90
37998;DHT22;24079;51.824;4.682;2022-10-16T11:19:44;18.70;99.90
37998;DHT22;24079;51.824;4.682;2022-10-16T11:27:37;18.60;99.90
37998;DHT22;24079;51.824;4.682;2022-10-16T11:30:13;18.70;99.90
37998;DHT22;24079;51.824;4.682;2022-10-16T11:35:48;18.70;99.90
37998;DHT22;24079;51.824;4.682;2022-10-16T11:40:54;18.70;99.90
37998;DHT22;24079;51.824;4.682;2022-10-16T11:43:37;18.70;99.90
37998;DHT22;24079;51.824;4.682;2022-10-16T11:46:17;18.80;99.90
37998;DHT22;24079;51.824;4.682;2022-10-16T11:51:44;19.00;99.90
37998;DHT22;24079;51.824;4.682;2022-10-16T11:54:52;18.90;99.90
37998;DHT22;24079;51.824;4.682;2022-10-16T11:57:29;18.80;99.90
37998;DHT22;24079;51.824;4.682;2022-10-16T12:00:08;18.80;99.90
37998;DHT22;24079;51.824;4.682;2022-10-16T12:02:59;18.80;99.90
37998;DHT22;24079;51.824;4.682;2022-10-16T12:08:15;18.50;99.90
37998;DHT22;24079;51.824;4.682;2022-10-16T12:10:44;18.60;99.90
37998;DHT22;24079;51.824;4.682;2022-10-16T12:13:31;18.70;99.90
37998;DHT22;24079;51.824;4.682;2022-10-16T12:18:46;18.50;99.90
37998;DHT22;24079;51.824;4.682;2022-10-16T12:21:14;18.30;99.90
37998;DHT22;24079;51.824;4.682;2022-10-16T12:23:53;18.30;99.90
37998;DHT22;24079;51.824;4.682;2022-10-16T12:26:28;18.40;99.90
37998;DHT22;24079;51.824;4.682;2022-10-16T12:28:55;18.30;99.90
37998;DHT22;24079;51.824;4.682;2022-10-16T12:31:21;18.40;99.90
37998;DHT22;24079;51.824;4.682;2022-10-16T12:34:14;18.40;99.90
37998;DHT22;24079;51.824;4.682;2022-10-16T12:36:45;18.50;99.90
37998;DHT22;24079;51.824;4.682;2022-10-16T12:39:24;18.50;99.90
37998;DHT22;24079;51.824;4.682;2022-10-16T12:42:05;18.50;99.90
37998;DHT22;24079;51.824;4.682;2022-10-16T12:44:35;18.40;99.90
37998;DHT22;24079;51.824;4.682;2022-10-16T12:47:02;18.20;99.90
37998;DHT22;24079;51.824;4.682;2022-10-16T12:51:53;18.60;99.90
37998;DHT22;24079;51.824;4.682;2022-10-16T13:00:04;19.10;99.90
37998;DHT22;24079;51.824;4.682;2022-10-16T13:05:35;19.30;99.90
37998;DHT22;24079;51.824;4.682;2022-10-16T13:10:41;19.10;99.90
37998;DHT22;24079;51.824;4.682;2022-10-16T13:18:46;18.80;99.90
37998;DHT22;24079;51.824;4.682;2022-10-16T13:26:53;19.10;99.90
37998;DHT22;24079;51.824;4.682;2022-10-16T13:29:22;19.10;99.90
37998;DHT22;24079;51.824;4.682;2022-10-16T13:31:48;18.90;99.90
37998;DHT22;24079;51.824;4.682;2022-10-16T13:34:18;19.10;99.90
37998;DHT22;24079;51.824;4.682;2022-10-16T13:36:47;19.20;99.90
37998;DHT22;24079;51.824;4.682;2022-10-16T13:39:27;19.10;99.90
37998;DHT22;24079;51.824;4.682;2022-10-16T13:42:06;19.00;99.90
37998;DHT22;24079;51.824;4.682;2022-10-16T13:44:48;19.00;99.90
37998;DHT22;24079;51.824;4.682;2022-10-16T13:47:23;18.80;99.90
37998;DHT22;24079;51.824;4.682;2022-10-16T13:50:04;18.80;99.90
37998;DHT22;24079;51.824;4.682;2022-10-16T13:52:30;18.90;99.90
37998;DHT22;24079;51.824;4.682;2022-10-16T13:54:56;18.90;99.90
37998;DHT22;24079;51.824;4.682;2022-10-16T13:57:24;19.00;99.90
37998;DHT22;24079;51.824;4.682;2022-10-16T13:59:50;19.00;99.90
37998;DHT22;24079;51.824;4.682;2022-10-16T14:02:33;19.00;99.90
37998;DHT22;24079;51.824;4.682;2022-10-16T14:05:01;19.00;99.90
37998;DHT22;24079;51.824;4.682;2022-10-16T14:07:30;19.00;99.90
37998;DHT22;24079;51.824;4.682;2022-10-16T14:10:03;19.00;99.90
37998;DHT22;24079;51.824;4.682;2022-10-16T14:12:29;19.00;99.90
37998;DHT22;24079;51.824;4.682;2022-10-16T14:14:57;19.00;99.90
37998;DHT22;24079;51.824;4.682;2022-10-16T14:17:26;19.00;99.90
37998;DHT22;24079;51.824;4.682;2022-10-16T14:19:55;19.00;99.90
37998;DHT22;24079;51.824;4.682;2022-10-16T14:24:50;18.80;99.90
37998;DHT22;24079;51.824;4.682;2022-10-16T14:27:33;18.60;99.90
37998;DHT22;24079;51.824;4.682;2022-10-16T14:30:15;18.60;99.90
37998;DHT22;24079;51.824;4.682;2022-10-16T14:32:42;18.60;99.90
37998;DHT22;24079;51.824;4.682;2022-10-16T14:35:29;18.60;99.90
37998;DHT22;24079;51.824;4.682;2022-10-16T14:37:56;18.60;99.90
37998;DHT22;24079;51.824;4.682;2022-10-16T14:40:25;18.70;99.90
37998;DHT22;24079;51.824;4.682;2022-10-16T14:42:51;18.80;99.90
37998;DHT22;24079;51.824;4.682;2022-10-16T14:45:23;18.80;99.90
37998;DHT22;24079;51.824;4.682;2022-10-16T14:47:52;18.80;99.90
37998;DHT22;24079;51.824;4.682;2022-10-16T14:50:18;18.80;99.90
37998;DHT22;24079;51.824;4.682;2022-10-16T14:52:43;18.80;99.90
37998;DHT22;24079;51.824;4.682;2022-10-16T14:55:09;18.90;99.90
37998;DHT22;24079;51.824;4.682;2022-10-16T14:57:37;18.90;99.90
37998;DHT22;24079;51.824;4.682;2022-10-16T15:00:13;18.80;99.90
37998;DHT22;24079;51.824;4.682;2022-10-16T15:02:40;18.80;99.90
37998;DHT22;24079;51.824;4.682;2022-10-16T15:07:41;18.80;99.90
37998;DHT22;24079;51.824;4.682;2022-10-16T15:10:07;18.80;99.90
37998;DHT22;24079;51.824;4.682;2022-10-16T15:12:33;18.70;99.90
37998;DHT22;24079;51.824;4.682;2022-10-16T15:14:58;18.60;99.90
37998;DHT22;24079;51.824;4.682;2022-10-16T15:17:24;18.50;99.90
37998;DHT22;24079;51.824;4.682;2022-10-16T15:19:49;18.50;99.90
37998;DHT22;24079;51.824;4.682;2022-10-16T15:22:17;18.50;99.90
37998;DHT22;24079;51.824;4.682;2022-10-16T15:24:42;18.50;99.90
37998;DHT22;24079;51.824;4.682;2022-10-16T15:27:08;18.40;99.90
37998;DHT22;24079;51.824;4.682;2022-10-16T15:29:34;18.30;99.90
37998;DHT22;24079;51.824;4.682;2022-10-16T15:31:59;18.30;99.90
37998;DHT22;24079;51.824;4.682;2022-10-16T15:34:25;18.30;99.90
37998;DHT22;24079;51.824;4.682;2022-10-16T15:36:51;18.30;99.90
37998;DHT22;24079;51.824;4.682;2022-10-16T15:39:18;18.20;99.90
37998;DHT22;24079;51.824;4.682;2022-10-16T15:41:46;18.20;99.90
37998;DHT22;24079;51.824;4.682;2022-10-16T15:44:19;18.00;99.90
37998;DHT22;24079;51.824;4.682;2022-10-16T15:46:46;18.00;99.90
37998;DHT22;24079;51.824;4.682;2022-10-16T15:49:12;17.90;99.90
37998;DHT22;24079;51.824;4.682;2022-10-16T15:51:39;17.90;99.90
37998;DHT22;24079;51.824;4.682;2022-10-16T15:54:05;17.90;99.90
37998;DHT22;24079;51.824;4.682;2022-10-16T15:56:31;17.80;99.90
37998;DHT22;24079;51.824;4.682;2022-10-16T15:59:01;17.70;99.90
37998;DHT22;24079;51.824;4.682;2022-10-16T16:01:27;17.70;99.90
37998;DHT22;24079;51.824;4.682;2022-10-16T16:03:54;17.70;99.90
37998;DHT22;24079;51.824;4.682;2022-10-16T16:06:21;17.60;99.90
37998;DHT22;24079;51.824;4.682;2022-10-16T16:08:49;17.60;99.90
37998;DHT22;24079;51.824;4.682;2022-10-16T16:11:16;17.60;99.90
37998;DHT22;24079;51.824;4.682;2022-10-16T16:13:42;17.60;99.90
37998;DHT22;24079;51.824;4.682;2022-10-16T16:16:12;17.60;99.90
37998;DHT22;24079;51.824;4.682;2022-10-16T16:18:38;17.60;99.90
37998;DHT22;24079;51.824;4.682;2022-10-16T16:21:04;17.50;99.90
37998;DHT22;24079;51.824;4.682;2022-10-16T16:23:31;17.40;99.90
37998;DHT22;24079;51.824;4.682;2022-10-16T16:26:20;17.40;99.90
37998;DHT22;24079;51.824;4.682;2022-10-16T16:28:49;17.30;99.90
37998;DHT22;24079;51.824;4.682;2022-10-16T16:31:14;17.30;99.90
37998;DHT22;24079;51.824;4.682;2022-10-16T16:33:40;17.30;99.90
37998;DHT22;24079;51.824;4.682;2022-10-16T16:36:06;17.20;99.90
37998;DHT22;24079;51.824;4.682;2022-10-16T16:38:32;17.20;99.90
37998;DHT22;24079;51.824;4.682;2022-10-16T16:40:58;17.20;99.90
37998;DHT22;24079;51.824;4.682;2022-10-16T16:43:25;17.20;99.90
37998;DHT22;24079;51.824;4.682;2022-10-16T16:45:51;17.20;99.90
37998;DHT22;24079;51.824;4.682;2022-10-16T16:48:17;17.20;99.90
37998;DHT22;24079;51.824;4.682;2022-10-16T16:50:43;17.10;99.90
37998;DHT22;24079;51.824;4.682;2022-10-16T16:53:08;17.10;99.90
37998;DHT22;24079;51.824;4.682;2022-10-16T16:55:35;17.10;99.90
37998;DHT22;24079;51.824;4.682;2022-10-16T16:58:01;17.10;99.90
37998;DHT22;24079;51.824;4.682;2022-10-16T17:00:28;17.10;99.90
37998;DHT22;24079;51.824;4.682;2022-10-16T17:02:53;17.10;99.90
37998;DHT22;24079;51.824;4.682;2022-10-16T17:05:19;17.10;99.90
37998;DHT22;24079;51.824;4.682;2022-10-16T17:07:45;17.10;99.90
37998;DHT22;24079;51.824;4.682;2022-10-16T17:10:10;17.10;99.90
37998;DHT22;24079;51.824;4.682;2022-10-16T17:12:36;17.00;99.90
37998;DHT22;24079;51.824;4.682;2022-10-16T17:15:02;17.10;99.90
37998;DHT22;24079;51.824;4.682;2022-10-16T17:17:27;17.10;99.90
37998;DHT22;24079;51.824;4.682;2022-10-16T17:19:53;17.00;99.90
37998;DHT22;24079;51.824;4.682;2022-10-16T17:22:19;17.00;99.90
37998;DHT22;24079;51.824;4.682;2022-10-16T17:24:48;17.00;99.90